Time;durP1;ratioP1;P1;durP2;ratioP2;P2;SDS_P1;SDS_P2;PMS_P1;PMS_P2;Temp;Humidity;BMP_temperature;BMP_pressure;BME280_temperature;BME280_humidity;BME280_pressure;Samples;Min_cycle;Max_cycle;Signal;HPM_P1;HPM_P2
2021/05/15 00:00:39;;;;;;;18.57;13.40;;;9.00;99.90;;;;;;6209661;23;20579;-91
2021/05/15 00:03:05;;;;;;;19.60;12.77;;;9.00;99.90;;;;;;6207258;22;20571;-92
2021/05/15 00:05:31;;;;;;;21.40;13.57;;;9.00;99.90;;;;;;6207955;22;20148;-92
2021/05/15 00:07:59;;;;;;;20.60;14.23;;;9.10;99.90;;;;;;6234850;22;20954;-90
2021/05/15 00:10:25;;;;;;;20.33;13.60;;;9.30;99.90;;;;;;6210769;23;20259;-91
2021/05/15 00:12:53;;;;;;;21.70;14.40;;;9.10;99.90;;;;;;6234661;22;20575;-92
2021/05/15 00:15:19;;;;;;;21.50;12.90;;;9.20;99.90;;;;;;6207808;23;20206;-94
2021/05/15 00:17:44;;;;;;;21.07;13.80;;;9.40;99.90;;;;;;6209315;22;20583;-94
2021/05/15 00:20:15;;;;;;;24.73;14.70;;;9.20;99.90;;;;;;6207562;22;20148;-91
2021/05/15 00:22:42;;;;;;;20.73;13.57;;;9.30;99.90;;;;;;6207976;22;20598;-94
2021/05/15 00:25:09;;;;;;;18.53;13.43;;;9.50;99.90;;;;;;6207994;22;20703;-94
2021/05/15 00:27:36;;;;;;;19.50;13.60;;;9.30;99.90;;;;;;6210636;22;20571;-93
2021/05/15 00:30:05;;;;;;;19.80;14.00;;;9.30;99.90;;;;;;6235070;22;20638;-95
2021/05/15 00:32:34;;;;;;;18.97;13.57;;;9.20;99.90;;;;;;6208888;23;20622;-92
2021/05/15 00:35:00;;;;;;;19.30;13.57;;;9.40;99.90;;;;;;6209746;22;20674;-95
2021/05/15 00:37:27;;;;;;;22.80;14.10;;;9.50;99.90;;;;;;6208012;22;20638;-96
2021/05/15 00:39:52;;;;;;;22.20;14.63;;;9.50;99.90;;;;;;6234651;22;20520;-93
2021/05/15 00:42:18;;;;;;;18.27;13.50;;;9.50;99.90;;;;;;6209747;23;20897;-95
2021/05/15 00:47:19;;;;;;;17.07;12.20;;;9.50;99.90;;;;;;6235856;22;20148;-93
2021/05/15 00:49:46;;;;;;;20.97;14.00;;;9.50;99.90;;;;;;6207485;22;20161;-92
2021/05/15 00:52:12;;;;;;;20.13;13.37;;;9.30;99.90;;;;;;6182754;23;20662;-91
2021/05/15 00:54:39;;;;;;;20.30;13.70;;;9.50;99.90;;;;;;6206580;22;20613;-92
2021/05/15 00:57:07;;;;;;;18.90;14.27;;;9.30;99.90;;;;;;6206750;23;20583;-92
2021/05/15 00:59:34;;;;;;;20.17;13.77;;;9.50;99.90;;;;;;6208001;22;20573;-93
2021/05/15 01:02:00;;;;;;;22.57;13.97;;;9.60;99.90;;;;;;6206093;22;20667;-91
2021/05/15 01:04:25;;;;;;;17.60;13.33;;;9.50;99.90;;;;;;6208521;22;20595;-94
2021/05/15 01:06:52;;;;;;;20.10;13.73;;;9.50;99.90;;;;;;6207194;23;21224;-93
2021/05/15 01:09:18;;;;;;;23.03;14.20;;;9.50;99.90;;;;;;6206246;23;20208;-93
2021/05/15 01:11:44;;;;;;;27.73;15.73;;;9.50;99.90;;;;;;6207814;22;20603;-94
2021/05/15 01:14:10;;;;;;;18.80;12.83;;;9.60;99.90;;;;;;6206974;22;20617;-95
2021/05/15 01:16:36;;;;;;;23.87;14.63;;;9.70;99.90;;;;;;6206676;22;20564;-93
2021/05/15 01:19:03;;;;;;;19.80;13.67;;;9.60;99.90;;;;;;6207084;22;20571;-93
2021/05/15 01:21:30;;;;;;;21.70;13.67;;;9.60;99.90;;;;;;6206148;22;20587;-94
2021/05/15 01:23:55;;;;;;;23.67;15.33;;;9.70;99.90;;;;;;6205142;22;20606;-92
2021/05/15 01:26:23;;;;;;;17.90;13.70;;;9.60;99.90;;;;;;6204533;22;20627;-93
2021/05/15 01:28:51;;;;;;;23.73;14.63;;;9.60;99.90;;;;;;6202043;22;20182;-93
2021/05/15 01:31:17;;;;;;;18.40;13.43;;;9.70;99.90;;;;;;6202863;23;20600;-91
2021/05/15 01:33:43;;;;;;;22.70;15.37;;;9.60;99.90;;;;;;6201623;22;21157;-91
2021/05/15 01:36:10;;;;;;;20.30;15.13;;;9.60;99.90;;;;;;6200410;23;20567;-91
2021/05/15 01:38:36;;;;;;;23.90;14.17;;;9.70;99.90;;;;;;6200795;22;20164;-93
2021/05/15 01:41:08;;;;;;;18.80;13.00;;;9.70;99.90;;;;;;6201081;22;20587;-93
2021/05/15 01:43:34;;;;;;;19.60;13.80;;;9.80;99.90;;;;;;6200333;22;20638;-92
2021/05/15 01:46:01;;;;;;;20.67;13.70;;;9.70;99.90;;;;;;6202107;23;20556;-92
2021/05/15 01:48:26;;;;;;;22.27;14.60;;;9.80;99.90;;;;;;6201962;23;20594;-92
2021/05/15 01:51:02;;;;;;;23.17;15.03;;;9.70;99.90;;;;;;6203608;22;20588;-91
2021/05/15 01:53:30;;;;;;;23.80;14.50;;;9.70;99.90;;;;;;6201697;23;20224;-92
2021/05/15 01:55:57;;;;;;;19.97;13.87;;;9.60;99.90;;;;;;6229158;23;20476;-90
2021/05/15 01:58:24;;;;;;;20.13;13.73;;;9.70;99.90;;;;;;6204292;22;20559;-89
2021/05/15 02:00:50;;;;;;;20.87;14.50;;;9.60;99.90;;;;;;6201313;23;20548;-92
2021/05/15 02:03:16;;;;;;;21.03;14.30;;;9.60;99.90;;;;;;6198906;23;20587;-91
2021/05/15 02:05:42;;;;;;;21.70;14.33;;;9.60;99.90;;;;;;6224962;23;20571;-89
2021/05/15 02:08:11;;;;;;;21.60;14.83;;;9.60;99.90;;;;;;6227656;23;20252;-90
2021/05/15 02:10:37;;;;;;;21.30;14.83;;;9.80;99.90;;;;;;6200417;22;20160;-94
2021/05/15 02:13:03;;;;;;;21.43;14.83;;;9.50;99.90;;;;;;6198847;23;20568;-90
2021/05/15 02:15:29;;;;;;;25.53;14.50;;;9.80;99.90;;;;;;6200267;23;20602;-93
2021/05/15 02:17:57;;;;;;;23.03;14.33;;;9.70;99.90;;;;;;6203461;23;20186;-91
2021/05/15 02:20:32;;;;;;;19.33;12.80;;;9.70;99.90;;;;;;5034615;27;20746;-69
2021/05/15 02:22:58;;;;;;;22.03;14.90;;;9.70;99.90;;;;;;5042907;28;20713;-72
2021/05/15 02:25:25;;;;;;;20.73;14.53;;;9.60;99.90;;;;;;5040050;27;20740;-71
2021/05/15 02:27:51;;;;;;;20.53;14.57;;;9.60;99.90;;;;;;5035712;28;21303;-70
2021/05/15 02:30:18;;;;;;;25.00;15.33;;;9.60;99.90;;;;;;5025926;28;20652;-70
2021/05/15 02:32:43;;;;;;;19.30;13.30;;;9.70;99.90;;;;;;5019680;28;20622;-70
2021/05/15 02:35:09;;;;;;;20.60;15.80;;;9.70;99.90;;;;;;5002210;28;21029;-70
2021/05/15 02:37:35;;;;;;;21.93;14.60;;;9.70;99.90;;;;;;5005483;28;20212;-71
2021/05/15 02:40:01;;;;;;;21.43;13.83;;;9.70;99.90;;;;;;5003556;28;20620;-71
2021/05/15 02:42:27;;;;;;;23.40;15.40;;;9.70;99.90;;;;;;5004099;28;20199;-70
2021/05/15 02:44:52;;;;;;;21.20;14.37;;;9.70;99.90;;;;;;4996085;28;20639;-70
2021/05/15 02:47:21;;;;;;;23.73;14.80;;;9.70;99.90;;;;;;4998240;28;20193;-71
2021/05/15 02:49:47;;;;;;;20.67;13.90;;;9.70;99.90;;;;;;4998755;28;20209;-70
2021/05/15 02:52:13;;;;;;;22.90;15.53;;;9.70;99.90;;;;;;4995720;28;20722;-70
2021/05/15 02:54:39;;;;;;;21.47;14.93;;;9.70;99.90;;;;;;5016278;28;20737;-70
2021/05/15 02:57:05;;;;;;;20.63;15.77;;;9.70;99.90;;;;;;5024831;28;20642;-70
2021/05/15 02:59:30;;;;;;;24.07;14.77;;;9.70;99.90;;;;;;5019605;28;20240;-69
2021/05/15 03:01:56;;;;;;;23.30;14.63;;;9.70;99.90;;;;;;5016543;28;20764;-70
2021/05/15 03:04:22;;;;;;;22.03;14.00;;;9.70;99.90;;;;;;5025728;28;20457;-70
2021/05/15 03:06:47;;;;;;;25.27;15.20;;;9.70;99.90;;;;;;5015364;28;20192;-70
2021/05/15 03:09:13;;;;;;;22.30;15.00;;;9.70;99.90;;;;;;5022416;28;20219;-70
2021/05/15 03:11:39;;;;;;;27.00;15.83;;;9.70;99.90;;;;;;5013891;28;20188;-70
2021/05/15 03:14:04;;;;;;;21.57;14.83;;;9.70;99.90;;;;;;5019234;28;20980;-70
2021/05/15 03:16:31;;;;;;;23.97;15.23;;;9.70;99.90;;;;;;5011307;28;20185;-72
2021/05/15 03:18:56;;;;;;;20.30;14.93;;;9.70;99.90;;;;;;5012931;28;20514;-72
2021/05/15 03:21:22;;;;;;;21.23;15.43;;;9.70;99.90;;;;;;5017684;28;20808;-72
2021/05/15 03:23:50;;;;;;;25.87;14.97;;;9.70;99.90;;;;;;5023691;28;20312;-71
2021/05/15 03:26:15;;;;;;;21.00;14.57;;;9.70;99.90;;;;;;5015914;28;20221;-72
2021/05/15 03:28:41;;;;;;;21.70;14.20;;;9.70;99.90;;;;;;5017751;28;20654;-72
2021/05/15 03:31:07;;;;;;;23.87;16.20;;;9.70;99.90;;;;;;5008058;28;20178;-72
2021/05/15 03:33:32;;;;;;;21.40;16.40;;;9.70;99.90;;;;;;4997039;28;20214;-71
2021/05/15 03:35:58;;;;;;;22.47;15.40;;;9.70;99.90;;;;;;4988828;28;20207;-71
2021/05/15 03:38:26;;;;;;;21.27;15.30;;;9.70;99.90;;;;;;4978380;28;20570;-71
2021/05/15 03:40:52;;;;;;;21.97;14.40;;;9.70;99.90;;;;;;4982885;28;20661;-71
2021/05/15 03:43:19;;;;;;;20.80;13.50;;;9.70;99.90;;;;;;4983756;28;20627;-71
2021/05/15 03:45:45;;;;;;;24.63;16.37;;;9.70;99.90;;;;;;4983479;28;20271;-72
2021/05/15 03:48:11;;;;;;;21.20;14.80;;;9.70;99.90;;;;;;4987264;28;21211;-72
2021/05/15 03:50:36;;;;;;;24.20;15.17;;;9.70;99.90;;;;;;4990637;28;20218;-72
2021/05/15 03:53:02;;;;;;;23.47;15.50;;;9.70;99.90;;;;;;4984135;28;20185;-71
2021/05/15 03:55:27;;;;;;;26.20;15.70;;;9.70;99.90;;;;;;4982205;28;20317;-71
2021/05/15 03:57:53;;;;;;;22.37;15.23;;;9.70;99.90;;;;;;4978038;28;20926;-71
2021/05/15 04:00:19;;;;;;;22.10;15.63;;;9.70;99.90;;;;;;4982751;28;20229;-71
2021/05/15 04:02:48;;;;;;;24.63;16.27;;;9.80;99.90;;;;;;4975431;28;20194;-72
2021/05/15 04:05:14;;;;;;;25.10;16.57;;;9.80;99.90;;;;;;4980468;28;21432;-72
2021/05/15 04:07:42;;;;;;;26.20;15.70;;;9.80;99.90;;;;;;4987717;28;20648;-72
2021/05/15 04:10:08;;;;;;;23.63;15.60;;;9.80;99.90;;;;;;4986727;28;20229;-72
2021/05/15 04:12:35;;;;;;;24.20;15.43;;;9.80;99.90;;;;;;4984948;28;20708;-71
2021/05/15 04:15:09;;;;;;;24.77;16.73;;;9.80;99.90;;;;;;4991892;28;20645;-72
2021/05/15 04:17:34;;;;;;;25.50;16.20;;;9.80;99.90;;;;;;4987891;28;21304;-71
2021/05/15 04:20:00;;;;;;;22.87;16.30;;;9.80;99.90;;;;;;4984780;28;20628;-71
2021/05/15 04:22:26;;;;;;;27.17;16.70;;;9.80;99.90;;;;;;4987446;28;20190;-71
2021/05/15 04:24:53;;;;;;;23.27;16.07;;;9.80;99.90;;;;;;4983097;28;20221;-71
2021/05/15 04:27:21;;;;;;;23.77;15.90;;;9.80;99.90;;;;;;4991899;28;21215;-70
2021/05/15 04:29:47;;;;;;;25.03;15.90;;;9.80;99.90;;;;;;4985602;28;20655;-70
2021/05/15 04:32:13;;;;;;;24.93;16.50;;;9.80;99.90;;;;;;4983143;28;20619;-71
2021/05/15 04:34:38;;;;;;;22.30;15.47;;;9.90;99.90;;;;;;4985612;28;20653;-71
2021/05/15 04:37:07;;;;;;;23.37;15.60;;;9.90;99.90;;;;;;4983871;28;20895;-71
2021/05/15 04:39:34;;;;;;;27.00;16.90;;;9.90;99.90;;;;;;4981945;28;20556;-71
2021/05/15 04:42:01;;;;;;;27.53;17.20;;;9.90;99.90;;;;;;4984189;28;21610;-70
2021/05/15 04:44:26;;;;;;;22.93;15.83;;;9.90;99.90;;;;;;4992948;28;21303;-71
2021/05/15 04:46:52;;;;;;;24.97;16.50;;;10.00;99.90;;;;;;4991698;28;20621;-71
2021/05/15 04:49:19;;;;;;;25.87;16.83;;;10.00;99.90;;;;;;4981408;28;20594;-70
2021/05/15 04:51:47;;;;;;;21.60;16.07;;;10.00;99.90;;;;;;4990207;28;20487;-71
2021/05/15 04:54:13;;;;;;;22.70;15.07;;;10.00;99.90;;;;;;5002524;22;20680;-65
2021/05/15 04:56:39;;;;;;;21.63;14.77;;;10.10;99.90;;;;;;4985772;28;20628;-63
2021/05/15 04:59:05;;;;;;;22.43;16.00;;;10.10;99.90;;;;;;4985761;28;20327;-63
2021/05/15 05:01:31;;;;;;;23.43;16.20;;;10.10;99.90;;;;;;4993972;28;20777;-62
2021/05/15 05:03:57;;;;;;;22.70;15.87;;;10.10;99.90;;;;;;4984240;28;20706;-62
2021/05/15 05:06:23;;;;;;;19.87;14.90;;;10.10;99.90;;;;;;4988252;28;20620;-61
2021/05/15 05:08:48;;;;;;;20.53;15.63;;;10.10;99.90;;;;;;4985475;28;20209;-63
2021/05/15 05:11:14;;;;;;;22.50;15.77;;;10.10;99.90;;;;;;4988534;28;20193;-63
2021/05/15 05:13:42;;;;;;;18.80;14.70;;;10.20;99.90;;;;;;4989235;28;20237;-64
2021/05/15 05:16:07;;;;;;;21.27;14.67;;;10.20;99.90;;;;;;4987441;28;20193;-62
2021/05/15 05:18:33;;;;;;;23.30;15.30;;;10.30;99.90;;;;;;4992901;28;23262;-63
2021/05/15 05:21:00;;;;;;;22.93;15.57;;;10.40;99.90;;;;;;4986460;28;20451;-63
2021/05/15 05:23:26;;;;;;;23.93;16.03;;;10.30;99.90;;;;;;4992672;28;20221;-63
2021/05/15 05:25:51;;;;;;;20.20;14.80;;;10.30;99.90;;;;;;4989593;28;20625;-63
2021/05/15 05:28:22;;;;;;;20.47;15.47;;;10.30;99.90;;;;;;4988175;28;20217;-63
2021/05/15 05:30:48;;;;;;;22.63;14.70;;;10.30;99.90;;;;;;4989292;28;20239;-63
2021/05/15 05:33:14;;;;;;;22.30;14.03;;;10.30;99.90;;;;;;4995722;28;20609;-62
2021/05/15 05:35:39;;;;;;;20.40;13.70;;;10.30;99.90;;;;;;4993182;28;20178;-62
2021/05/15 05:38:05;;;;;;;19.33;15.13;;;10.40;99.90;;;;;;4996642;28;20220;-63
2021/05/15 05:40:33;;;;;;;18.77;14.00;;;10.40;99.90;;;;;;4996046;28;20199;-63
2021/05/15 05:42:59;;;;;;;19.87;13.37;;;10.30;99.90;;;;;;4983274;28;20268;-67
2021/05/15 05:45:24;;;;;;;17.30;12.67;;;10.30;99.90;;;;;;4995788;28;20791;-66
2021/05/15 05:47:50;;;;;;;17.43;13.37;;;10.30;99.90;;;;;;5013940;28;20281;-69
2021/05/15 05:50:15;;;;;;;17.40;13.00;;;10.30;99.90;;;;;;5000905;28;20218;-67
2021/05/15 05:52:43;;;;;;;19.80;13.60;;;10.30;99.90;;;;;;4984040;28;20186;-67
2021/05/15 05:55:11;;;;;;;16.23;13.53;;;10.30;99.90;;;;;;4991122;28;20302;-62
2021/05/15 05:57:37;;;;;;;18.60;13.47;;;10.30;99.90;;;;;;4995003;28;20655;-64
2021/05/15 06:00:06;;;;;;;20.07;14.03;;;10.40;99.90;;;;;;4997582;28;21380;-62
2021/05/15 06:02:31;;;;;;;19.40;13.33;;;10.40;99.90;;;;;;4994758;28;20658;-64
2021/05/15 06:04:57;;;;;;;15.37;12.30;;;10.30;99.90;;;;;;4996706;28;20632;-64
2021/05/15 06:07:23;;;;;;;19.57;13.20;;;10.40;99.90;;;;;;4983573;28;20214;-63
2021/05/15 06:09:48;;;;;;;16.60;12.27;;;10.50;99.90;;;;;;4990872;28;20248;-64
2021/05/15 06:12:14;;;;;;;18.83;12.57;;;10.50;99.90;;;;;;4987995;28;20603;-64
2021/05/15 06:14:40;;;;;;;14.70;11.57;;;10.60;99.90;;;;;;4997465;28;20217;-63
2021/05/15 06:17:06;;;;;;;19.07;13.17;;;10.50;99.90;;;;;;4991249;28;20620;-64
2021/05/15 06:19:32;;;;;;;17.20;12.30;;;10.50;99.90;;;;;;4998500;28;20660;-67
2021/05/15 06:21:58;;;;;;;15.37;11.63;;;10.40;99.90;;;;;;4997919;28;20648;-63
2021/05/15 06:24:25;;;;;;;16.60;12.60;;;10.40;99.90;;;;;;4988871;28;20261;-62
2021/05/15 06:26:50;;;;;;;18.73;13.13;;;10.40;99.90;;;;;;4993146;28;20190;-64
2021/05/15 06:29:16;;;;;;;18.97;11.93;;;10.40;99.90;;;;;;4994782;28;20750;-64
2021/05/15 06:31:41;;;;;;;17.07;12.57;;;10.40;99.90;;;;;;4993949;28;21650;-64
2021/05/15 06:34:07;;;;;;;19.60;12.77;;;10.50;99.90;;;;;;4996381;28;20541;-64
2021/05/15 06:36:32;;;;;;;17.03;12.80;;;10.40;99.90;;;;;;4998255;28;20202;-64
2021/05/15 06:39:00;;;;;;;18.83;11.80;;;10.40;99.90;;;;;;4981053;28;20221;-64
2021/05/15 06:41:26;;;;;;;18.20;12.77;;;10.40;99.90;;;;;;4977771;28;20327;-62
2021/05/15 06:43:52;;;;;;;16.77;11.77;;;10.50;99.90;;;;;;4989431;28;20640;-64
2021/05/15 06:46:18;;;;;;;18.27;12.87;;;10.50;99.90;;;;;;4991529;28;20236;-65
2021/05/15 06:48:43;;;;;;;15.80;11.50;;;10.60;99.90;;;;;;4985911;28;20316;-63
2021/05/15 06:51:09;;;;;;;15.40;11.33;;;10.60;99.90;;;;;;4990698;28;20193;-62
2021/05/15 06:53:34;;;;;;;19.87;13.13;;;10.60;99.90;;;;;;5013827;28;20354;-64
2021/05/15 06:56:00;;;;;;;16.07;11.77;;;10.60;99.90;;;;;;5000070;28;20186;-63
2021/05/15 06:58:25;;;;;;;17.87;12.10;;;10.60;99.90;;;;;;4993271;28;20634;-63
2021/05/15 07:00:51;;;;;;;15.30;10.90;;;10.60;99.90;;;;;;4967247;28;20206;-64
2021/05/15 07:03:16;;;;;;;15.13;11.50;;;10.80;99.90;;;;;;4980704;28;20202;-64
2021/05/15 07:05:42;;;;;;;16.60;12.37;;;10.80;99.90;;;;;;4980552;28;20189;-64
2021/05/15 07:08:07;;;;;;;14.80;11.33;;;10.80;99.90;;;;;;4979689;28;20277;-64
2021/05/15 07:10:33;;;;;;;18.00;11.00;;;10.80;99.90;;;;;;4988381;28;20564;-63
2021/05/15 07:12:59;;;;;;;14.40;11.50;;;10.80;99.90;;;;;;4992395;28;20198;-66
2021/05/15 07:15:24;;;;;;;16.83;11.00;;;10.90;99.90;;;;;;4985910;28;20222;-64
2021/05/15 07:17:50;;;;;;;16.17;12.33;;;10.90;99.90;;;;;;4994219;28;20214;-64
2021/05/15 07:20:16;;;;;;;15.73;12.20;;;11.00;99.90;;;;;;4984249;28;20194;-64
2021/05/15 07:22:42;;;;;;;17.20;11.40;;;11.00;99.90;;;;;;4978411;28;20301;-63
2021/05/15 07:25:09;;;;;;;15.90;12.07;;;11.00;99.90;;;;;;4986839;28;20348;-67
2021/05/15 07:27:35;;;;;;;17.07;12.90;;;11.00;99.90;;;;;;4984591;28;20667;-65
2021/05/15 07:30:02;;;;;;;17.50;12.60;;;11.00;99.90;;;;;;4986335;28;20652;-65
2021/05/15 07:32:28;;;;;;;17.40;12.27;;;11.10;99.90;;;;;;4979004;28;20615;-64
2021/05/15 07:34:56;;;;;;;13.70;11.73;;;11.20;99.90;;;;;;4991887;28;21093;-63
2021/05/15 07:37:22;;;;;;;14.23;11.27;;;11.20;99.90;;;;;;4990631;28;20198;-64
2021/05/15 07:39:48;;;;;;;15.70;12.03;;;11.40;99.90;;;;;;4987818;28;21227;-63
2021/05/15 07:42:13;;;;;;;13.33;10.87;;;11.40;99.90;;;;;;4992386;28;20209;-64
2021/05/15 07:44:39;;;;;;;13.40;11.40;;;11.40;99.90;;;;;;4992090;28;20683;-65
2021/05/15 07:47:05;;;;;;;13.90;10.57;;;11.40;99.90;;;;;;4993632;28;20398;-64
2021/05/15 07:49:30;;;;;;;16.27;12.23;;;11.50;99.90;;;;;;4993623;28;20297;-64
2021/05/15 07:51:56;;;;;;;15.20;10.93;;;11.50;99.90;;;;;;4996573;28;20228;-63
2021/05/15 07:54:24;;;;;;;13.70;11.57;;;11.50;99.90;;;;;;4994522;28;20248;-64
2021/05/15 07:56:50;;;;;;;13.87;10.63;;;11.60;99.90;;;;;;4992573;28;20782;-63
2021/05/15 07:59:17;;;;;;;13.83;11.10;;;11.50;99.90;;;;;;4992552;28;20690;-65
2021/05/15 08:01:43;;;;;;;15.60;11.33;;;11.60;99.90;;;;;;4989995;28;21049;-63
2021/05/15 08:04:11;;;;;;;14.87;11.77;;;11.60;99.90;;;;;;4991998;28;20652;-65
2021/05/15 08:06:37;;;;;;;16.27;12.17;;;11.60;99.90;;;;;;4987971;28;21073;-66
2021/05/15 08:09:04;;;;;;;18.17;12.07;;;11.70;99.90;;;;;;4989777;28;20766;-65
2021/05/15 08:11:31;;;;;;;15.23;11.70;;;11.80;99.90;;;;;;4996300;28;20222;-62
2021/05/15 08:13:56;;;;;;;14.73;11.80;;;11.70;99.90;;;;;;4987914;28;20746;-64
2021/05/15 08:16:22;;;;;;;17.03;12.33;;;11.70;99.90;;;;;;4985275;28;20620;-65
2021/05/15 08:18:48;;;;;;;14.60;11.37;;;11.90;99.90;;;;;;4997751;28;20265;-65
2021/05/15 08:21:13;;;;;;;15.63;12.27;;;11.90;99.90;;;;;;4992445;28;20189;-65
2021/05/15 08:23:40;;;;;;;13.77;11.90;;;11.90;99.90;;;;;;4990115;28;20311;-65
2021/05/15 08:26:08;;;;;;;15.33;12.40;;;11.90;99.90;;;;;;4999056;28;20200;-65
2021/05/15 08:28:34;;;;;;;17.33;12.93;;;12.00;99.90;;;;;;4994981;28;20636;-64
2021/05/15 08:31:01;;;;;;;15.67;13.70;;;12.00;99.90;;;;;;5015467;28;20931;-63
2021/05/15 08:33:29;;;;;;;14.53;12.40;;;12.00;99.90;;;;;;5008858;28;20723;-63
2021/05/15 08:35:56;;;;;;;15.77;12.33;;;12.00;99.90;;;;;;4983347;28;20641;-65
2021/05/15 08:38:22;;;;;;;12.83;11.53;;;12.00;99.90;;;;;;4981197;28;21015;-65
2021/05/15 08:40:47;;;;;;;14.07;12.30;;;12.00;99.90;;;;;;4988007;28;20700;-62
2021/05/15 08:43:15;;;;;;;14.80;12.13;;;12.10;99.90;;;;;;4995428;28;20213;-64
2021/05/15 08:45:42;;;;;;;14.50;11.90;;;12.10;99.90;;;;;;4989840;28;20674;-64
2021/05/15 08:48:11;;;;;;;15.30;12.30;;;12.10;99.90;;;;;;4998125;28;20771;-64
2021/05/15 08:50:37;;;;;;;18.27;13.37;;;12.10;99.90;;;;;;4991980;28;21265;-65
2021/05/15 08:53:03;;;;;;;16.57;12.83;;;12.20;99.90;;;;;;5003998;28;21174;-64
2021/05/15 08:55:30;;;;;;;18.07;13.70;;;12.20;99.90;;;;;;5006131;28;20637;-64
2021/05/15 08:57:58;;;;;;;14.80;13.20;;;12.20;99.90;;;;;;5004578;28;20259;-64
2021/05/15 09:00:27;;;;;;;17.77;13.37;;;12.20;99.90;;;;;;5000659;28;21154;-64
2021/05/15 09:03:05;;;;;;;15.63;13.93;;;12.30;99.90;;;;;;4994302;28;20620;-64
2021/05/15 09:05:34;;;;;;;21.60;16.40;;;12.40;99.90;;;;;;4999842;28;20960;-64
2021/05/15 09:08:01;;;;;;;17.63;15.80;;;12.50;99.90;;;;;;5007563;28;20756;-64
2021/05/15 09:10:32;;;;;;;19.90;17.80;;;12.60;99.90;;;;;;4999368;28;20648;-64
2021/05/15 09:13:17;;;;;;;23.10;18.80;;;12.70;99.90;;;;;;4993972;28;21172;-64
2021/05/15 09:15:49;;;;;;;18.40;16.43;;;12.80;99.90;;;;;;4999982;28;21238;-64
2021/05/15 09:18:20;;;;;;;21.30;17.23;;;12.80;99.90;;;;;;5000065;28;21208;-62
2021/05/15 09:20:47;;;;;;;19.07;16.90;;;12.80;99.90;;;;;;5009945;28;20719;-65
2021/05/15 09:23:31;;;;;;;20.20;15.23;;;12.90;99.90;;;;;;5010718;28;20616;-63
2021/05/15 09:25:59;;;;;;;18.53;14.30;;;12.90;99.90;;;;;;5005747;28;21184;-65
2021/05/15 09:28:34;;;;;;;19.33;17.30;;;13.00;99.90;;;;;;5003734;28;20688;-64
2021/05/15 09:31:22;;;;;;;22.17;19.87;;;13.20;99.90;;;;;;5008785;28;20627;-64
2021/05/15 09:33:56;;;;;;;24.57;21.87;;;13.30;99.90;;;;;;4994193;28;20695;-65
2021/05/15 09:36:26;;;;;;;23.37;20.90;;;13.30;99.90;;;;;;4998376;28;20967;-64
2021/05/15 09:39:19;;;;;;;24.00;21.43;;;13.40;99.90;;;;;;5000914;28;20671;-64
2021/05/15 09:41:49;;;;;;;24.20;21.67;;;13.60;99.90;;;;;;4997317;28;20644;-65
2021/05/15 09:44:19;;;;;;;25.80;23.00;;;13.70;99.90;;;;;;4996474;28;20642;-65
2021/05/15 09:46:46;;;;;;;23.93;21.47;;;13.80;99.90;;;;;;5002958;28;20658;-64
2021/05/15 09:49:14;;;;;;;23.23;20.90;;;14.00;99.90;;;;;;5000786;28;21212;-64
2021/05/15 09:51:49;;;;;;;23.70;21.30;;;14.10;99.90;;;;;;5011689;28;20617;-64
2021/05/15 09:54:18;;;;;;;23.70;21.20;;;14.10;99.90;;;;;;5003635;28;20651;-64
2021/05/15 09:57:07;;;;;;;23.93;21.40;;;14.20;99.90;;;;;;5002238;28;21256;-66
2021/05/15 09:59:38;;;;;;;24.83;22.17;;;14.30;99.90;;;;;;4997457;28;21036;-64
2021/05/15 10:02:06;;;;;;;23.43;20.93;;;14.30;99.90;;;;;;4997913;28;20624;-66
2021/05/15 10:04:32;;;;;;;25.23;22.53;;;14.40;99.90;;;;;;4991622;28;20671;-64
2021/05/15 10:06:58;;;;;;;23.63;21.23;;;14.50;99.90;;;;;;5003674;28;20668;-64
2021/05/15 10:09:28;;;;;;;23.17;20.83;;;14.60;99.90;;;;;;4996420;28;21218;-64
2021/05/15 10:11:54;;;;;;;21.47;19.27;;;14.70;99.90;;;;;;4998687;28;20739;-64
2021/05/15 10:14:21;;;;;;;22.20;18.77;;;14.80;99.90;;;;;;4999364;28;20815;-64
2021/05/15 10:16:47;;;;;;;20.50;18.40;;;14.90;99.90;;;;;;5004091;28;20289;-64
2021/05/15 10:19:14;;;;;;;20.20;17.63;;;15.10;99.90;;;;;;5005434;28;20752;-64
2021/05/15 10:21:39;;;;;;;20.07;18.07;;;15.20;99.90;;;;;;4988677;28;20621;-65
2021/05/15 10:24:06;;;;;;;20.03;16.93;;;15.30;99.90;;;;;;5000099;28;20625;-65
2021/05/15 10:26:33;;;;;;;19.50;17.50;;;15.40;99.90;;;;;;4991657;28;20555;-64
2021/05/15 10:29:02;;;;;;;21.37;17.00;;;15.40;99.90;;;;;;4977606;28;20655;-64
2021/05/15 10:31:41;;;;;;;18.07;16.27;;;15.40;99.90;;;;;;4982739;28;20602;-64
2021/05/15 10:34:10;;;;;;;18.37;16.47;;;15.40;99.90;;;;;;4998789;28;20636;-64
2021/05/15 10:36:49;;;;;;;18.57;16.63;;;15.50;99.90;;;;;;4988843;28;20699;-64
2021/05/15 10:39:36;;;;;;;16.10;14.50;;;15.50;99.90;;;;;;4984074;28;20672;-65
2021/05/15 10:42:03;;;;;;;17.50;15.50;;;15.50;99.90;;;;;;4991429;28;21126;-64
2021/05/15 10:45:00;;;;;;;16.97;15.20;;;15.70;99.90;;;;;;4995686;28;21579;-65
2021/05/15 10:47:39;;;;;;;17.73;15.10;;;15.80;99.90;;;;;;4995630;28;20738;-65
2021/05/15 10:50:19;;;;;;;17.50;15.30;;;15.80;99.90;;;;;;4980794;28;20636;-63
2021/05/15 10:52:46;;;;;;;17.43;14.73;;;15.90;99.90;;;;;;4986370;28;20814;-62
2021/05/15 10:55:12;;;;;;;17.50;14.60;;;15.90;99.90;;;;;;5057639;22;20705;-87
2021/05/15 10:57:38;;;;;;;15.40;13.63;;;15.90;99.90;;;;;;5047190;28;20653;-89
2021/05/15 11:00:07;;;;;;;16.80;14.57;;;16.00;99.90;;;;;;5047995;28;20265;-82
2021/05/15 11:02:37;;;;;;;16.60;13.93;;;16.00;99.90;;;;;;5028147;28;20192;-82
2021/05/15 11:05:17;;;;;;;15.23;12.33;;;16.00;99.90;;;;;;5013564;28;20678;-81
2021/05/15 11:07:43;;;;;;;14.27;12.70;;;16.00;99.90;;;;;;5026185;28;20691;-86
2021/05/15 11:10:16;;;;;;;14.37;12.77;;;16.00;99.90;;;;;;5028935;28;20663;-88
2021/05/15 11:12:47;;;;;;;15.33;12.33;;;16.10;99.90;;;;;;5032998;28;20613;-89
2021/05/15 11:15:15;;;;;;;19.17;14.40;;;16.20;99.90;;;;;;5023972;28;20628;-87
2021/05/15 11:17:41;;;;;;;16.00;14.00;;;16.20;99.90;;;;;;5030838;28;20625;-86
2021/05/15 11:20:20;;;;;;;14.20;12.70;;;16.30;99.90;;;;;;5008672;28;20720;-85
2021/05/15 11:22:49;;;;;;;17.50;14.03;;;16.60;99.90;;;;;;5004171;28;20636;-86
2021/05/15 11:25:14;;;;;;;15.97;13.80;;;16.70;99.90;;;;;;5018476;28;20636;-88
2021/05/15 11:27:57;;;;;;;15.27;12.83;;;16.80;99.90;;;;;;5018417;28;20605;-87
2021/05/15 11:30:28;;;;;;;13.10;11.50;;;17.00;99.90;;;;;;5031136;28;20221;-88
2021/05/15 11:32:55;;;;;;;12.90;11.47;;;17.10;99.90;;;;;;5061683;28;20651;-87
2021/05/15 11:35:21;;;;;;;14.03;12.60;;;17.30;99.90;;;;;;5016130;28;21238;-88
2021/05/15 11:37:46;;;;;;;12.97;11.60;;;17.60;99.90;;;;;;5020225;28;20620;-91
2021/05/15 11:40:15;;;;;;;13.00;11.03;;;17.80;99.90;;;;;;5016596;28;20237;-90
2021/05/15 11:42:41;;;;;;;15.17;10.90;;;18.00;99.90;;;;;;5025198;28;20208;-91
2021/05/15 11:45:07;;;;;;;14.60;10.93;;;18.20;99.90;;;;;;5039580;28;20651;-89
2021/05/15 11:47:32;;;;;;;12.67;11.30;;;18.30;99.90;;;;;;5024115;28;20404;-89
2021/05/15 11:50:00;;;;;;;12.30;11.00;;;18.30;99.90;;;;;;5021302;28;20662;-90
2021/05/15 11:52:31;;;;;;;12.03;10.73;;;18.40;99.90;;;;;;4996027;28;20197;-91
2021/05/15 11:54:57;;;;;;;11.20;10.10;;;18.50;99.90;;;;;;5015731;28;20652;-90
2021/05/15 11:57:29;;;;;;;12.47;11.03;;;18.70;99.90;;;;;;5044538;28;20707;-88
2021/05/15 12:00:15;;;;;;;12.73;9.63;;;18.90;99.90;;;;;;5021388;28;20197;-86
2021/05/15 12:02:46;;;;;;;12.80;10.50;;;18.90;99.90;;;;;;5019084;28;20629;-87
2021/05/15 12:05:19;;;;;;;12.80;10.80;;;19.00;99.90;;;;;;5013224;28;20644;-88
2021/05/15 12:07:45;;;;;;;11.77;10.57;;;19.00;99.90;;;;;;5016625;28;20706;-87
2021/05/15 12:10:22;;;;;;;13.07;10.70;;;19.00;99.90;;;;;;5010730;28;20667;-86
2021/05/15 12:13:01;;;;;;;12.43;10.00;;;18.90;99.90;;;;;;5015312;28;20668;-88
2021/05/15 12:15:32;;;;;;;12.53;11.23;;;18.90;99.90;;;;;;5013896;28;20640;-90
2021/05/15 12:18:00;;;;;;;13.40;9.60;;;18.90;99.90;;;;;;5017379;28;20624;-90
2021/05/15 12:20:33;;;;;;;11.77;10.23;;;18.90;99.90;;;;;;5030533;28;20620;-88
2021/05/15 12:23:21;;;;;;;14.10;10.90;;;18.80;99.90;;;;;;5019398;28;22322;-87
2021/05/15 12:26:07;;;;;;;12.30;9.80;;;19.10;99.90;;;;;;5020327;28;20679;-88
2021/05/15 12:28:42;;;;;;;11.77;10.57;;;19.20;99.90;;;;;;5034344;28;20708;-85
2021/05/15 12:31:22;;;;;;;12.30;11.10;;;19.20;99.90;;;;;;5017827;28;20616;-87
2021/05/15 12:33:48;;;;;;;13.33;10.90;;;19.00;99.90;;;;;;5037343;28;20644;-87
2021/05/15 12:36:13;;;;;;;14.53;12.17;;;18.90;99.90;;;;;;5023297;28;20647;-86